NCAR-RAP Real-Time Weather Data

Output produced by METARs form (14 October 2019  23:03 UTC)
found at http://weather.rap.ucar.edu/surface/
 
KSYR 142254Z 23005KT 10SM BKN080 BKN200 09/03 A3004 RMK AO2 SLP171 T00940033
KSYR 142154Z 26008KT 10SM BKN047 BKN060 OVC085 10/04 A3003 RMK AO2 SLP168 T01000039
KSYR 142054Z 28008KT 10SM OVC039 10/04 A3002 RMK AO2 RAE39 SLP162 P0000 60000 T01000039 53018